createdAt,value
2023-05-25T00:01:20.571Z,9.00
2023-05-25T00:03:49.661Z,9.00
2023-05-25T00:06:26.234Z,8.90
2023-05-25T00:08:57.779Z,8.90
2023-05-25T00:11:26.840Z,8.90
2023-05-25T00:13:56.398Z,8.90
2023-05-25T00:16:25.574Z,8.90
2023-05-25T00:18:57.744Z,8.90
2023-05-25T00:21:39.504Z,8.80
2023-05-25T00:24:11.657Z,8.80
2023-05-25T00:26:40.069Z,8.80
2023-05-25T00:29:08.775Z,8.80
2023-05-25T00:31:39.388Z,8.80
2023-05-25T00:34:10.470Z,8.80
2023-05-25T00:36:39.129Z,8.80
2023-05-25T00:39:09.440Z,8.90
2023-05-25T00:41:41.936Z,8.90
2023-05-25T00:44:10.792Z,8.80
2023-05-25T00:46:40.646Z,8.80
2023-05-25T00:49:10.333Z,8.80
2023-05-25T00:51:39.525Z,8.80
2023-05-25T00:54:10.121Z,8.80
2023-05-25T00:56:41.591Z,8.70
2023-05-25T00:59:13.516Z,8.70
2023-05-25T01:01:44.970Z,8.70
2023-05-25T01:04:16.628Z,8.70
2023-05-25T01:06:50.255Z,8.70
2023-05-25T01:09:22.557Z,8.70
2023-05-25T01:11:53.683Z,8.60
2023-05-25T01:14:27.552Z,8.60
2023-05-25T01:16:59.160Z,8.60
2023-05-25T01:19:27.509Z,8.60
2023-05-25T01:22:05.232Z,8.60
2023-05-25T01:24:41.155Z,8.60
2023-05-25T01:27:18.542Z,8.50
2023-05-25T01:29:48.367Z,8.50
2023-05-25T01:32:21.251Z,8.40
2023-05-25T01:34:51.860Z,8.40
2023-05-25T01:37:24.624Z,8.40
2023-05-25T01:39:53.350Z,8.40
2023-05-25T01:42:22.411Z,8.40
2023-05-25T01:44:51.283Z,8.30
2023-05-25T01:47:26.392Z,8.30
2023-05-25T01:50:01.541Z,8.30
2023-05-25T01:52:38.056Z,8.30
2023-05-25T01:55:10.302Z,8.20
2023-05-25T01:57:43.081Z,8.20
2023-05-25T02:00:13.413Z,8.20
2023-05-25T02:02:43.706Z,8.20
2023-05-25T02:05:13.821Z,8.20
2023-05-25T02:07:44.110Z,8.20
2023-05-25T02:10:12.824Z,8.20
2023-05-25T02:12:43.049Z,8.10
2023-05-25T02:15:12.495Z,8.10
2023-05-25T02:17:41.690Z,8.10
2023-05-25T02:20:12.761Z,8.10
2023-05-25T02:22:41.562Z,8.10
2023-05-25T02:25:14.047Z,8.00
2023-05-25T02:27:42.195Z,8.00
2023-05-25T02:30:11.875Z,7.90
2023-05-25T02:32:41.205Z,7.90
2023-05-25T02:35:11.004Z,7.90
2023-05-25T02:37:40.629Z,7.80
2023-05-25T02:40:15.186Z,7.80
2023-05-25T02:42:44.419Z,7.80
2023-05-25T02:45:14.006Z,7.70
2023-05-25T02:47:43.533Z,7.70
2023-05-25T02:50:14.604Z,7.60
2023-05-25T02:52:47.431Z,7.60
2023-05-25T02:55:19.014Z,7.50
2023-05-25T02:57:47.580Z,7.50
2023-05-25T03:00:32.060Z,7.50
2023-05-25T03:03:01.106Z,7.40
2023-05-25T03:05:30.308Z,7.40
2023-05-25T03:07:59.576Z,7.40
2023-05-25T03:10:29.723Z,7.40
2023-05-25T03:12:59.847Z,7.40
2023-05-25T03:15:28.736Z,7.40
2023-05-25T03:18:01.473Z,7.40
2023-05-25T03:20:34.819Z,7.40
2023-05-25T03:23:04.504Z,7.30
2023-05-25T03:25:37.399Z,7.30
2023-05-25T03:28:10.742Z,7.30
2023-05-25T03:30:40.913Z,7.30
2023-05-25T03:33:11.170Z,7.30
2023-05-25T03:35:46.338Z,7.20
2023-05-25T03:38:15.231Z,7.20
2023-05-25T03:40:49.024Z,7.20
2023-05-25T03:43:18.855Z,7.30
2023-05-25T03:45:49.618Z,7.30
2023-05-25T03:48:18.827Z,7.30
2023-05-25T03:50:48.015Z,7.30
2023-05-25T03:53:20.533Z,7.30
2023-05-25T03:55:52.611Z,7.40
2023-05-25T03:58:21.545Z,7.40
2023-05-25T04:00:51.859Z,7.40
2023-05-25T04:03:22.088Z,7.50
2023-05-25T04:05:56.841Z,7.50
2023-05-25T04:08:26.434Z,7.50
2023-05-25T04:10:56.524Z,7.60
2023-05-25T04:13:26.684Z,7.70
2023-05-25T04:15:56.487Z,7.80
2023-05-25T04:18:29.663Z,8.10
2023-05-25T04:20:59.334Z,8.30
2023-05-25T04:23:29.092Z,8.60
2023-05-25T04:26:00.625Z,8.90
2023-05-25T04:28:29.640Z,9.40
2023-05-25T04:31:05.588Z,9.90
2023-05-25T04:33:42.247Z,10.40
2023-05-25T04:36:32.800Z,10.90
2023-05-25T04:39:04.022Z,11.30
2023-05-25T04:41:39.589Z,11.50
2023-05-25T04:44:13.247Z,11.80
2023-05-25T04:46:47.682Z,12.20
2023-05-25T04:49:22.658Z,12.50
2023-05-25T04:51:51.609Z,12.80
2023-05-25T04:54:20.372Z,13.20
2023-05-25T04:56:50.597Z,13.50
2023-05-25T04:59:20.397Z,13.90
2023-05-25T05:01:49.496Z,14.10
2023-05-25T05:04:19.199Z,14.20
2023-05-25T05:06:52.533Z,14.40
2023-05-25T05:09:27.148Z,14.30
2023-05-25T05:11:59.853Z,14.50
2023-05-25T05:14:30.760Z,14.70
2023-05-25T05:17:00.015Z,14.80
2023-05-25T05:19:29.783Z,14.90
2023-05-25T05:21:59.285Z,15.10
2023-05-25T05:24:28.854Z,15.10
2023-05-25T05:26:59.250Z,15.50
2023-05-25T05:29:47.809Z,15.60
2023-05-25T05:32:16.846Z,15.80
2023-05-25T05:34:46.210Z,16.00
2023-05-25T05:37:33.463Z,16.20
2023-05-25T05:40:02.525Z,16.10
2023-05-25T05:42:33.187Z,16.10
2023-05-25T05:45:13.588Z,16.40
2023-05-25T05:47:42.196Z,16.50
2023-05-25T05:50:12.151Z,16.40
2023-05-25T05:52:42.607Z,16.20
2023-05-25T05:55:12.680Z,16.70
2023-05-25T05:57:43.989Z,16.90
2023-05-25T06:00:17.520Z,17.40
2023-05-25T06:02:47.374Z,17.80
2023-05-25T06:05:21.885Z,18.10
2023-05-25T06:07:50.986Z,18.20
2023-05-25T06:10:22.487Z,18.20
2023-05-25T06:12:51.374Z,18.20
2023-05-25T06:15:22.872Z,18.20
2023-05-25T06:17:56.136Z,18.30
2023-05-25T06:20:24.979Z,18.70
2023-05-25T06:22:53.803Z,18.70
2023-05-25T06:25:22.824Z,19.00
2023-05-25T06:27:52.002Z,19.40
2023-05-25T06:30:22.987Z,19.50
2023-05-25T06:32:53.119Z,19.80
2023-05-25T06:35:22.392Z,20.20
2023-05-25T06:37:52.872Z,20.50
2023-05-25T06:40:24.170Z,20.90
2023-05-25T06:42:53.104Z,21.20
2023-05-25T06:45:41.359Z,21.40
2023-05-25T06:48:10.566Z,21.60
2023-05-25T06:50:39.879Z,21.60
2023-05-25T06:53:08.593Z,21.70
2023-05-25T06:55:40.457Z,22.00
2023-05-25T06:58:09.322Z,22.00
2023-05-25T07:00:38.621Z,22.10
2023-05-25T07:03:09.290Z,22.80
2023-05-25T07:05:39.491Z,23.10
2023-05-25T07:08:08.439Z,23.30
2023-05-25T07:10:37.053Z,23.40
2023-05-25T07:13:07.112Z,23.50
2023-05-25T07:15:35.281Z,23.60
2023-05-25T07:18:04.060Z,23.80
2023-05-25T07:20:36.756Z,24.00
2023-05-25T07:23:05.139Z,23.60
2023-05-25T07:25:33.793Z,24.20
2023-05-25T07:28:02.239Z,24.40
2023-05-25T07:30:31.290Z,24.70
2023-05-25T07:33:00.502Z,24.60
2023-05-25T07:35:29.355Z,24.30
2023-05-25T07:38:00.148Z,24.70
2023-05-25T07:40:29.495Z,24.80
2023-05-25T07:42:58.546Z,24.90
2023-05-25T07:45:26.885Z,25.40
2023-05-25T07:47:55.270Z,25.70
2023-05-25T07:50:24.270Z,25.80
2023-05-25T07:52:52.791Z,26.20
2023-05-25T07:55:22.849Z,26.60
2023-05-25T07:57:51.604Z,27.20
2023-05-25T08:00:21.170Z,27.40
2023-05-25T08:02:50.716Z,27.20
2023-05-25T08:05:19.492Z,27.30
2023-05-25T08:07:47.810Z,26.90
2023-05-25T08:10:16.421Z,27.40
2023-05-25T08:12:49.492Z,27.80
2023-05-25T08:15:19.449Z,28.10
2023-05-25T08:17:49.661Z,28.40
2023-05-25T08:20:19.230Z,28.90
2023-05-25T08:22:47.989Z,29.40
2023-05-25T08:25:16.663Z,29.30
2023-05-25T08:27:47.113Z,29.30
2023-05-25T08:30:15.840Z,29.30
2023-05-25T08:32:45.214Z,29.40
2023-05-25T08:35:22.450Z,29.80
2023-05-25T08:37:51.775Z,30.40
2023-05-25T08:40:26.456Z,30.40
2023-05-25T08:42:56.723Z,30.70
2023-05-25T08:45:35.287Z,31.30
2023-05-25T08:50:53.977Z,32.20
2023-05-25T08:53:23.814Z,32.20
2023-05-25T08:55:54.477Z,32.10
2023-05-25T08:58:32.656Z,31.90
2023-05-25T09:01:07.673Z,32.10
2023-05-25T09:03:37.184Z,31.80
2023-05-25T09:06:06.254Z,31.60
2023-05-25T09:08:35.037Z,31.80
2023-05-25T09:11:04.681Z,32.00
2023-05-25T09:13:35.322Z,32.20
2023-05-25T09:16:05.667Z,31.70
2023-05-25T09:18:34.590Z,31.80
2023-05-25T09:21:04.593Z,31.70
2023-05-25T09:23:34.329Z,31.60
2023-05-25T09:26:03.236Z,31.90
2023-05-25T09:28:31.986Z,32.00
2023-05-25T09:31:02.621Z,32.60
2023-05-25T09:33:32.780Z,32.90
2023-05-25T09:36:02.931Z,32.30
2023-05-25T09:38:32.706Z,32.80
2023-05-25T09:41:02.452Z,33.30
2023-05-25T09:43:41.760Z,33.70
2023-05-25T09:46:15.469Z,34.50
2023-05-25T09:48:45.808Z,35.10
2023-05-25T09:51:15.820Z,35.00
2023-05-25T09:53:46.076Z,34.30
2023-05-25T09:56:19.207Z,34.20
2023-05-25T09:58:48.533Z,33.80
2023-05-25T10:01:18.908Z,32.90
2023-05-25T10:03:59.834Z,33.80
2023-05-25T10:06:34.894Z,33.90
2023-05-25T10:09:05.259Z,34.00
2023-05-25T10:11:37.400Z,34.40
2023-05-25T10:14:09.170Z,34.80
2023-05-25T10:16:43.530Z,34.10
2023-05-25T10:19:18.445Z,33.50
2023-05-25T10:21:53.020Z,33.70
2023-05-25T10:24:26.179Z,34.30
2023-05-25T10:27:07.767Z,33.80
2023-05-25T10:29:45.384Z,34.10
2023-05-25T10:32:17.717Z,34.40
2023-05-25T10:34:46.717Z,34.80
2023-05-25T10:37:17.053Z,35.20
2023-05-25T10:39:47.585Z,35.50
2023-05-25T10:42:16.246Z,34.80
2023-05-25T10:44:46.115Z,34.50
2023-05-25T10:47:20.482Z,34.60
2023-05-25T10:49:54.926Z,35.00
2023-05-25T10:52:29.126Z,35.00
2023-05-25T10:55:04.965Z,34.60
2023-05-25T10:57:34.552Z,34.90
2023-05-25T11:00:07.190Z,35.20
2023-05-25T11:02:56.104Z,35.40
2023-05-25T11:05:51.685Z,35.20
2023-05-25T11:08:47.107Z,35.10
2023-05-25T11:11:16.291Z,35.40
2023-05-25T11:13:49.655Z,35.30
2023-05-25T11:16:37.902Z,34.90
2023-05-25T11:19:17.088Z,35.50
2023-05-25T11:21:52.684Z,36.20
2023-05-25T11:24:23.204Z,35.70
2023-05-25T11:27:00.012Z,35.40
2023-05-25T11:29:33.088Z,35.40
2023-05-25T11:32:02.856Z,35.60
2023-05-25T11:34:34.000Z,35.80
2023-05-25T11:37:04.111Z,34.90
2023-05-25T11:39:33.697Z,34.40
2023-05-25T11:42:09.752Z,34.90
2023-05-25T11:44:48.358Z,35.80
2023-05-25T11:47:19.077Z,36.10
2023-05-25T11:49:49.955Z,37.00
2023-05-25T11:52:19.852Z,36.90
2023-05-25T11:54:49.350Z,37.00
2023-05-25T11:57:23.287Z,37.20
2023-05-25T11:59:52.369Z,37.20
2023-05-25T12:02:22.414Z,37.20
2023-05-25T12:05:01.841Z,36.70
2023-05-25T12:07:32.837Z,36.60
2023-05-25T12:10:08.231Z,36.00
2023-05-25T12:12:42.818Z,35.60
2023-05-25T12:15:13.290Z,36.50
2023-05-25T12:17:47.113Z,36.50
2023-05-25T12:20:18.600Z,36.50
2023-05-25T12:22:51.386Z,35.90
2023-05-25T12:25:24.514Z,35.50
2023-05-25T12:28:11.524Z,35.40
2023-05-25T12:30:41.852Z,34.90
2023-05-25T12:33:14.441Z,35.20
2023-05-25T12:35:49.794Z,36.00
2023-05-25T12:38:21.668Z,36.90
2023-05-25T12:41:06.528Z,36.70
2023-05-25T12:43:39.885Z,36.70
2023-05-25T12:46:10.919Z,37.40
2023-05-25T12:48:39.690Z,37.70
2023-05-25T12:51:10.560Z,37.80
2023-05-25T12:53:49.583Z,37.10
2023-05-25T12:56:19.028Z,36.80
2023-05-25T12:58:48.846Z,36.40
2023-05-25T13:01:18.785Z,36.40
2023-05-25T13:03:47.304Z,36.20
2023-05-25T13:06:19.671Z,35.90
2023-05-25T13:08:49.265Z,35.30
2023-05-25T13:11:17.822Z,35.20
2023-05-25T13:13:46.303Z,35.80
2023-05-25T13:16:15.005Z,35.90
2023-05-25T13:18:44.144Z,35.90
2023-05-25T13:21:12.522Z,35.90
2023-05-25T13:23:43.416Z,36.20
2023-05-25T13:26:12.520Z,35.60
2023-05-25T13:28:40.955Z,35.00
2023-05-25T13:31:12.368Z,34.70
2023-05-25T13:33:42.451Z,35.20
2023-05-25T13:36:10.986Z,35.80
2023-05-25T13:38:40.606Z,35.90
2023-05-25T13:41:11.529Z,36.10
2023-05-25T13:43:42.545Z,35.80
2023-05-25T13:46:21.898Z,35.60
2023-05-25T13:49:00.256Z,35.20
2023-05-25T13:51:28.667Z,35.20
2023-05-25T13:53:58.640Z,35.00
2023-05-25T13:56:29.569Z,34.60
2023-05-25T13:58:58.342Z,35.00
2023-05-25T14:01:29.165Z,35.20
2023-05-25T14:04:01.072Z,34.50
2023-05-25T14:06:30.715Z,34.90
2023-05-25T14:09:01.872Z,34.70
2023-05-25T14:11:32.099Z,34.00
2023-05-25T14:14:01.105Z,33.80
2023-05-25T14:16:29.639Z,33.80
2023-05-25T14:19:01.148Z,33.70
2023-05-25T14:21:31.021Z,33.90
2023-05-25T14:24:00.133Z,34.20
2023-05-25T14:26:28.830Z,34.50
2023-05-25T14:28:58.961Z,34.70
2023-05-25T14:31:28.088Z,34.50
2023-05-25T14:33:56.532Z,34.50
2023-05-25T14:36:25.269Z,33.60
2023-05-25T14:38:54.090Z,33.00
2023-05-25T14:41:23.108Z,33.00
2023-05-25T14:43:52.098Z,33.10
2023-05-25T14:46:22.983Z,33.00
2023-05-25T14:48:51.779Z,32.60
2023-05-25T14:51:20.360Z,32.40
2023-05-25T14:53:49.042Z,32.20
2023-05-25T14:56:20.173Z,32.00
2023-05-25T14:58:51.071Z,32.10
2023-05-25T15:01:24.400Z,32.10
2023-05-25T15:03:55.525Z,32.30
2023-05-25T15:06:27.867Z,32.50
2023-05-25T15:08:56.929Z,32.50
2023-05-25T15:11:27.129Z,32.40
2023-05-25T15:13:57.874Z,32.60
2023-05-25T15:16:26.591Z,32.50
2023-05-25T15:18:56.658Z,32.40
2023-05-25T15:21:25.650Z,32.30
2023-05-25T15:23:54.050Z,32.00
2023-05-25T15:26:23.728Z,31.70
2023-05-25T15:28:53.724Z,31.60
2023-05-25T15:31:23.998Z,31.40
2023-05-25T15:33:58.653Z,31.40
2023-05-25T15:36:28.989Z,31.30
2023-05-25T15:38:57.457Z,31.00
2023-05-25T15:41:27.898Z,31.10
2023-05-25T15:44:01.294Z,31.40
2023-05-25T15:46:32.742Z,31.50
2023-05-25T15:49:02.325Z,31.50
2023-05-25T15:51:33.072Z,31.50
2023-05-25T15:54:04.137Z,31.20
2023-05-25T15:56:33.295Z,31.00
2023-05-25T15:59:04.329Z,30.50
2023-05-25T16:01:34.446Z,30.00
2023-05-25T16:04:06.288Z,29.30
2023-05-25T16:06:36.387Z,29.30
2023-05-25T16:09:05.639Z,29.00
2023-05-25T16:11:38.543Z,29.00
2023-05-25T16:14:06.772Z,28.80
2023-05-25T16:16:35.892Z,28.40
2023-05-25T16:19:04.942Z,28.20
2023-05-25T16:21:38.010Z,28.20
2023-05-25T16:24:09.279Z,28.40
2023-05-25T16:26:37.978Z,28.60
2023-05-25T16:29:07.452Z,28.40
2023-05-25T16:31:38.172Z,28.40
2023-05-25T16:34:08.644Z,28.70
2023-05-25T16:36:37.978Z,28.60
2023-05-25T16:39:08.460Z,28.40
2023-05-25T16:41:39.547Z,28.50
2023-05-25T16:44:11.072Z,28.40
2023-05-25T16:46:45.824Z,27.90
2023-05-25T16:49:14.690Z,27.70
2023-05-25T16:51:57.026Z,27.50
2023-05-25T16:54:27.428Z,26.90
2023-05-25T16:56:56.384Z,26.30
2023-05-25T16:59:24.757Z,25.80
2023-05-25T17:01:55.078Z,25.50
2023-05-25T17:04:23.719Z,25.10
2023-05-25T17:06:52.648Z,24.70
2023-05-25T17:09:21.314Z,24.40
2023-05-25T17:11:53.945Z,24.00
2023-05-25T17:14:22.800Z,23.60
2023-05-25T17:16:52.195Z,23.30
2023-05-25T17:19:21.909Z,23.00
2023-05-25T17:21:50.859Z,22.80
2023-05-25T17:24:19.277Z,22.70
2023-05-25T17:26:50.455Z,22.50
2023-05-25T17:29:20.603Z,22.50
2023-05-25T17:31:49.820Z,22.40
2023-05-25T17:34:18.396Z,22.30
2023-05-25T17:36:48.290Z,22.10
2023-05-25T17:39:16.345Z,21.90
2023-05-25T17:41:45.588Z,21.80
2023-05-25T17:44:14.602Z,21.70
2023-05-25T17:46:44.984Z,21.60
2023-05-25T17:49:14.449Z,21.50
2023-05-25T17:51:44.490Z,21.40
2023-05-25T17:54:18.630Z,21.20
2023-05-25T17:56:47.844Z,21.10
2023-05-25T17:59:17.850Z,20.90
2023-05-25T18:01:48.606Z,20.90
2023-05-25T18:04:19.709Z,20.80
2023-05-25T18:06:50.428Z,20.70
2023-05-25T18:09:18.881Z,20.70
2023-05-25T18:11:48.974Z,20.60
2023-05-25T18:14:20.377Z,20.50
2023-05-25T18:16:50.199Z,20.40
2023-05-25T18:19:24.116Z,20.30
2023-05-25T18:21:54.192Z,20.20
2023-05-25T18:24:23.928Z,20.10
2023-05-25T18:26:55.939Z,20.00
2023-05-25T18:29:24.693Z,19.90
2023-05-25T18:31:55.327Z,19.80
2023-05-25T18:34:26.857Z,19.80
2023-05-25T18:36:56.555Z,19.60
2023-05-25T18:39:25.877Z,19.50
2023-05-25T18:41:58.441Z,19.40
2023-05-25T18:44:29.255Z,19.30
2023-05-25T18:47:00.329Z,19.20
2023-05-25T18:49:32.936Z,19.10
2023-05-25T18:52:02.333Z,19.00
2023-05-25T18:54:33.519Z,18.90
2023-05-25T18:57:03.124Z,18.80
2023-05-25T18:59:33.654Z,18.70
2023-05-25T19:02:05.444Z,18.60
2023-05-25T19:04:34.167Z,18.50
2023-05-25T19:07:02.911Z,18.40
2023-05-25T19:09:35.261Z,18.30
2023-05-25T19:12:04.949Z,18.10
2023-05-25T19:14:34.183Z,18.00
2023-05-25T19:17:04.917Z,17.80
2023-05-25T19:19:35.111Z,17.70
2023-05-25T19:22:03.713Z,17.60
2023-05-25T19:24:34.080Z,17.50
2023-05-25T19:27:03.069Z,17.30
2023-05-25T19:29:31.814Z,17.20
2023-05-25T19:32:01.177Z,17.20
2023-05-25T19:34:31.284Z,17.10
2023-05-25T19:37:10.970Z,17.00
2023-05-25T19:39:42.237Z,16.90
2023-05-25T19:42:12.399Z,16.80
2023-05-25T19:44:41.473Z,16.70
2023-05-25T19:47:11.616Z,16.70
2023-05-25T19:49:44.407Z,16.60
2023-05-25T19:52:14.234Z,16.50
2023-05-25T19:54:42.898Z,16.50
2023-05-25T19:57:11.454Z,16.50
2023-05-25T19:59:40.695Z,16.40
2023-05-25T20:02:12.127Z,16.30
2023-05-25T20:04:41.732Z,16.30
2023-05-25T20:07:13.878Z,16.20
2023-05-25T20:09:43.070Z,16.20
2023-05-25T20:12:11.511Z,16.10
2023-05-25T20:14:41.013Z,16.10
2023-05-25T20:17:11.430Z,16.00
2023-05-25T20:19:39.621Z,16.00
2023-05-25T20:22:08.706Z,15.90
2023-05-25T20:24:40.902Z,15.90
2023-05-25T20:27:11.538Z,15.80
2023-05-25T20:29:40.560Z,15.80
2023-05-25T20:32:10.027Z,15.70
2023-05-25T20:34:42.310Z,15.70
2023-05-25T20:37:11.424Z,15.60
2023-05-25T20:39:41.987Z,15.60
2023-05-25T20:42:10.635Z,15.50
2023-05-25T20:44:39.086Z,15.50
2023-05-25T20:47:08.471Z,15.50
2023-05-25T20:49:37.183Z,15.40
2023-05-25T20:52:07.861Z,15.30
2023-05-25T20:54:41.812Z,15.30
2023-05-25T20:57:15.138Z,15.30
2023-05-25T20:59:44.139Z,15.20
2023-05-25T21:02:12.783Z,15.20
2023-05-25T21:04:41.523Z,15.20
2023-05-25T21:07:10.927Z,15.10
2023-05-25T21:09:43.055Z,15.10
2023-05-25T21:12:14.446Z,15.00
2023-05-25T21:14:43.417Z,15.00
2023-05-25T21:17:12.732Z,14.90
2023-05-25T21:19:45.650Z,14.90
2023-05-25T21:22:16.528Z,14.80
2023-05-25T21:24:45.312Z,14.80
2023-05-25T21:27:22.230Z,14.80
2023-05-25T21:29:51.849Z,14.70
2023-05-25T21:32:19.912Z,14.60
2023-05-25T21:34:48.424Z,14.60
2023-05-25T21:37:19.337Z,14.50
2023-05-25T21:39:47.550Z,14.50
2023-05-25T21:42:25.758Z,14.40
2023-05-25T21:44:55.638Z,14.40
2023-05-25T21:47:23.717Z,14.30
2023-05-25T21:49:55.154Z,14.30
2023-05-25T21:52:27.827Z,14.30
2023-05-25T21:54:57.917Z,14.20
2023-05-25T21:57:27.483Z,14.10
2023-05-25T21:59:56.682Z,14.00
2023-05-25T22:02:25.039Z,14.00
2023-05-25T22:04:53.679Z,14.00
2023-05-25T22:07:22.975Z,13.90
2023-05-25T22:13:52.324Z,13.80
2023-05-25T22:16:24.619Z,13.70
2023-05-25T22:18:52.838Z,13.70
2023-05-25T22:21:21.744Z,13.70
2023-05-25T22:23:51.083Z,13.70
2023-05-25T22:26:27.828Z,13.60
2023-05-25T22:28:57.591Z,13.60
2023-05-25T22:31:28.685Z,13.50
2023-05-25T22:33:57.206Z,13.50
2023-05-25T22:36:34.755Z,13.40
2023-05-25T22:39:03.710Z,13.30
2023-05-25T22:41:35.271Z,13.30
2023-05-25T22:44:07.550Z,13.20
2023-05-25T22:46:36.016Z,13.10
2023-05-25T22:49:06.052Z,13.10
2023-05-25T22:51:38.682Z,13.00
2023-05-25T22:54:08.269Z,13.00
2023-05-25T22:56:38.316Z,12.90
2023-05-25T22:59:12.425Z,12.90
2023-05-25T23:01:42.134Z,12.80
2023-05-25T23:04:12.383Z,12.80
2023-05-25T23:06:41.767Z,12.70
2023-05-25T23:09:11.188Z,12.70
2023-05-25T23:11:41.180Z,12.70
2023-05-25T23:14:11.773Z,12.60
2023-05-25T23:16:41.495Z,12.50
2023-05-25T23:19:09.963Z,12.50
2023-05-25T23:21:38.728Z,12.50
2023-05-25T23:24:09.305Z,12.40
2023-05-25T23:26:37.951Z,12.40
2023-05-25T23:29:06.545Z,12.40
2023-05-25T23:31:37.374Z,12.30
2023-05-25T23:34:06.457Z,12.30
2023-05-25T23:36:41.099Z,12.30
2023-05-25T23:39:09.807Z,12.20
2023-05-25T23:41:42.208Z,12.20
2023-05-25T23:44:19.177Z,12.10
2023-05-25T23:46:49.233Z,12.10
2023-05-25T23:49:19.361Z,12.10
2023-05-25T23:51:48.531Z,12.10
2023-05-25T23:54:17.459Z,12.00
2023-05-25T23:56:46.844Z,12.00
2023-05-25T23:59:15.560Z,11.90
